Dades meteomassalio
Diari Summary for Noviembre 14, 2017 Units:  Metric    English   Both
« Previous Day
Next Day »
Diari Semanal Mensual Anual Personalitzat
  Maxima: Minima: Mijana:
Temperatura: -17.8 °C -19 °C -14.4 °C
Rosada: -17.8 °C -23.7 °C -19.6 °C
Humitat: Humidity % 35 % 52 %
Velocitat del vent: 0 km/h 0 km/h 29.6 km/h
Racha vent: 0 km/h - -
Vent:- - WNW
Pressio: 0 hPa 34601.5 hPa -
Pluja: 0 mm    
Historical Graphs
 
 
Tabular Data for Noviembre 14, 2017
Time Temperature Dew Point Pressure Wind Wind Speed Wind Gust Humidity Rainfall Rate (Hourly) solar Conditions
-17.8 °C -17.8 °C 0 hPa Calm     Humidity % 0 mm SolarRadiationWatts/m^2 W/m2 Conditions
00:01 -14.4 °C -17.9 °C 34625.2 hPa NW 46.7 km/h 46.7 km/h 64 % 0 mm 0.0 W/m2 CLR
00:06 -14.4 °C -17.9 °C 34625.2 hPa NW 62.6 km/h 62.6 km/h 64 % 0 mm 0.0 W/m2 CLR
00:11 -14.4 °C -17.9 °C 34625.2 hPa WNW 38.8 km/h 38.8 km/h 64 % 0 mm 0.0 W/m2 CLR
00:16 -14.4 °C -17.9 °C 34625.2 hPa NNW 41.4 km/h 41.4 km/h 64 % 0 mm 0.0 W/m2 CLR
00:21 -14.7 °C -18.2 °C 34625.2 hPa WNW 32.8 km/h 32.8 km/h 64 % 0 mm 0.0 W/m2 CLR
00:26 -14.7 °C -18.2 °C 34625.2 hPa WNW 50.7 km/h 50.7 km/h 64 % 0 mm 0.0 W/m2 CLR
00:32 -14.7 °C -18.2 °C 34611.7 hPa NW 41.7 km/h 41.7 km/h 64 % 0 mm 0.0 W/m2 CLR
00:37 -14.7 °C -18.2 °C 34611.7 hPa NNW 56.6 km/h 56.6 km/h 64 % 0 mm 0.0 W/m2 CLR
00:42 -14.7 °C -18.2 °C 34611.7 hPa NW 32.8 km/h 32.8 km/h 64 % 0 mm 0.0 W/m2 CLR
00:47 -14.7 °C -18.2 °C 34611.7 hPa NW 38.8 km/h 38.8 km/h 64 % 0 mm 0.0 W/m2 CLR
00:52 -14.7 °C -18.2 °C 34611.7 hPa NW 50.7 km/h 50.7 km/h 64 % 0 mm 0.0 W/m2 CLR
00:57 -14.7 °C -18.2 °C 34601.5 hPa NW 50.7 km/h 50.7 km/h 64 % 0 mm 0.0 W/m2 CLR
01:02 -14.7 °C -18.2 °C 34611.7 hPa NW 38.8 km/h 38.8 km/h 64 % 0 mm 0.0 W/m2 CLR
01:04 -14.7 °C -18.2 °C 34601.5 hPa NW 47.6 km/h 47.6 km/h 64 % 0 mm 0.0 W/m2 CLR
01:09 -14.7 °C -18.2 °C 34611.7 hPa NW 31.1 km/h 31.1 km/h 64 % 0 mm 0.0 W/m2 CLR
01:14 -14.7 °C -18.2 °C 34611.7 hPa WNW 38.8 km/h 38.8 km/h 64 % 0 mm 0.0 W/m2 CLR
01:19 -14.7 °C -18.2 °C 34611.7 hPa WNW 50.7 km/h 50.7 km/h 64 % 0 mm 0.0 W/m2 CLR
01:24 -14.7 °C -18.2 °C 34611.7 hPa NW 47.6 km/h 47.6 km/h 64 % 0 mm 0.0 W/m2 CLR
01:29 -14.7 °C -18.2 °C 34611.7 hPa WNW 41.7 km/h 41.7 km/h 64 % 0 mm 0.0 W/m2 CLR
01:34 -14.7 °C -18.2 °C 34611.7 hPa NNW 38.8 km/h 38.8 km/h 64 % 0 mm 0.0 W/m2 CLR
01:39 -14.7 °C -18.2 °C 34611.7 hPa WNW 50.7 km/h 50.7 km/h 64 % 0 mm 0.0 W/m2 CLR
01:44 -14.7 °C -18.2 °C 34611.7 hPa WNW 38.8 km/h 38.8 km/h 64 % 0 mm 0.0 W/m2 CLR
01:49 -14.7 °C -18.2 °C 34625.2 hPa NW 29.8 km/h 29.8 km/h 64 % 0 mm 0.0 W/m2 CLR
01:54 -14.7 °C -18.2 °C 34625.2 hPa NW 31.1 km/h 31.1 km/h 64 % 0 mm 0.0 W/m2 CLR
01:59 -14.7 °C -18.2 °C 34625.2 hPa NNW 44.7 km/h 44.7 km/h 64 % 0 mm 0.0 W/m2 CLR
02:04 -14.7 °C -18.2 °C 34625.2 hPa WNW 50.7 km/h 50.7 km/h 64 % 0 mm 0.0 W/m2 CLR
02:09 -14.7 °C -18.2 °C 34625.2 hPa NW 47.6 km/h 47.6 km/h 64 % 0 mm 0.0 W/m2 CLR
02:14 -14.7 °C -18.2 °C 34625.2 hPa NW 38.8 km/h 38.8 km/h 64 % 0 mm 0.0 W/m2 CLR
02:19 -14.7 °C -18.2 °C 34625.2 hPa NW 31.1 km/h 31.1 km/h 64 % 0 mm 0.0 W/m2 CLR
02:24 -14.7 °C -18.2 °C 34625.2 hPa NW 46.7 km/h 46.7 km/h 64 % 0 mm 0.0 W/m2 CLR
02:35 -14.7 °C -18.2 °C 34625.2 hPa WNW 51.8 km/h 51.8 km/h 64 % 0 mm 0.0 W/m2 CLR
02:40 -14.7 °C -18.2 °C 34625.2 hPa WNW 41.4 km/h 41.4 km/h 64 % 0 mm 0.0 W/m2 CLR
02:45 -14.7 °C -18.2 °C 34625.2 hPa NW 41.7 km/h 41.7 km/h 64 % 0 mm 0.0 W/m2 CLR
02:50 -14.7 °C -18.2 °C 34611.7 hPa NW 41.7 km/h 41.7 km/h 64 % 0 mm 0.0 W/m2 CLR
02:55 -14.7 °C -18.2 °C 34611.7 hPa NW 41.7 km/h 41.7 km/h 64 % 0 mm 0.0 W/m2 CLR
03:00 -14.7 °C -18.2 °C 34625.2 hPa WNW 50.7 km/h 50.7 km/h 64 % 0 mm 0.0 W/m2 CLR
03:05 -15 °C -18.5 °C 34611.7 hPa NW 41.7 km/h 41.7 km/h 64 % 0 mm 0.0 W/m2 CLR
03:10 -15 °C -18.6 °C 34611.7 hPa NW 49.2 km/h 49.2 km/h 63 % 0 mm 0.0 W/m2 CLR
03:15 -14.7 °C -18.3 °C 34611.7 hPa NW 38.8 km/h 38.8 km/h 63 % 0 mm 0.0 W/m2 CLR
03:20 -14.7 °C -18.3 °C 34611.7 hPa NW 47.6 km/h 47.6 km/h 63 % 0 mm 0.0 W/m2 CLR
03:25 -14.7 °C -18.3 °C 34601.5 hPa NW 44.7 km/h 44.7 km/h 63 % 0 mm 0.0 W/m2 CLR
03:31 -14.7 °C -18.3 °C 34601.5 hPa NW 32.8 km/h 32.8 km/h 63 % 0 mm 0.0 W/m2 CLR
03:36 -14.7 °C -18.3 °C 34601.5 hPa WNW 41.7 km/h 41.7 km/h 63 % 0 mm 0.0 W/m2 CLR
03:41 -15 °C -18.6 °C 34601.5 hPa WNW 50.7 km/h 50.7 km/h 63 % 0 mm 0.0 W/m2 CLR
03:46 -15 °C -18.6 °C 34601.5 hPa NW 35.7 km/h 35.7 km/h 63 % 0 mm 0.0 W/m2 CLR
03:51 -15 °C -18.6 °C 34611.7 hPa WNW 47.6 km/h 47.6 km/h 63 % 0 mm 0.0 W/m2 CLR
03:56 -15 °C -18.6 °C 34601.5 hPa NW 26.9 km/h 26.9 km/h 63 % 0 mm 0.0 W/m2 CLR
04:01 -15 °C -18.6 °C 34611.7 hPa WNW 35.7 km/h 35.7 km/h 63 % 0 mm 0.0 W/m2 CLR
04:06 -15 °C -18.6 °C 34601.5 hPa NW 41.7 km/h 41.7 km/h 63 % 0 mm 0.0 W/m2 CLR
04:11 -15 °C -18.7 °C 34601.5 hPa NW 41.7 km/h 41.7 km/h 62 % 0 mm 0.0 W/m2 CLR
04:16 -15 °C -18.7 °C 34601.5 hPa NW 50.7 km/h 50.7 km/h 62 % 0 mm 0.0 W/m2 CLR
04:21 -15 °C -18.7 °C 34601.5 hPa NW 50.7 km/h 50.7 km/h 62 % 0 mm 0.0 W/m2 CLR
04:22 -15 °C -18.7 °C 34601.5 hPa NW 38.8 km/h 38.8 km/h 62 % 0 mm 0.0 W/m2 CLR
04:27 -15 °C -18.7 °C 34611.7 hPa WNW 47.6 km/h 47.6 km/h 62 % 0 mm 0.0 W/m2 CLR
04:32 -15 °C -18.7 °C 34601.5 hPa WNW 41.4 km/h 41.4 km/h 62 % 0 mm 0.0 W/m2 CLR
04:37 -15 °C -18.7 °C 34601.5 hPa WNW 41.7 km/h 41.7 km/h 62 % 0 mm 0.0 W/m2 CLR
04:42 -15 °C -18.7 °C 34601.5 hPa NW 41.7 km/h 41.7 km/h 62 % 0 mm 0.0 W/m2 CLR
04:47 -15 °C -18.7 °C 34601.5 hPa NW 41.4 km/h 41.4 km/h 62 % 0 mm 0.0 W/m2 CLR
04:53 -15 °C -18.7 °C 34601.5 hPa WNW 50.7 km/h 50.7 km/h 62 % 0 mm 0.0 W/m2 CLR
04:58 -15 °C -18.7 °C 34601.5 hPa NW 44.7 km/h 44.7 km/h 62 % 0 mm 0.0 W/m2 CLR
05:03 -15 °C -18.7 °C 34601.5 hPa NW 50.7 km/h 50.7 km/h 62 % 0 mm 0.0 W/m2 CLR
05:08 -15 °C -18.7 °C 34601.5 hPa WNW 53.6 km/h 53.6 km/h 62 % 0 mm 0.0 W/m2 CLR
05:13 -15 °C -18.7 °C 34601.5 hPa NW 38.8 km/h 38.8 km/h 62 % 0 mm 0.0 W/m2 CLR
05:18 -15 °C -18.7 °C 34601.5 hPa NW 38.8 km/h 38.8 km/h 62 % 0 mm 0.0 W/m2 CLR
05:23 -15 °C -18.7 °C 34611.7 hPa NW 44.7 km/h 44.7 km/h 62 % 0 mm 0.0 W/m2 CLR
05:28 -15 °C -18.7 °C 34611.7 hPa WNW 35.7 km/h 35.7 km/h 62 % 0 mm 0.0 W/m2 CLR
05:33 -15 °C -18.7 °C 34611.7 hPa WNW 31.1 km/h 31.1 km/h 62 % 0 mm 0.0 W/m2 CLR
05:38 -15 °C -18.7 °C 34611.7 hPa WNW 26.9 km/h 26.9 km/h 62 % 0 mm 0.0 W/m2 CLR
05:43 -15.3 °C -19 °C 34611.7 hPa NW 25.9 km/h 25.9 km/h 62 % 0 mm 0.0 W/m2 CLR
05:48 -15.3 °C -19 °C 34611.7 hPa NW 29.8 km/h 29.8 km/h 62 % 0 mm 0.0 W/m2 CLR
05:53 -15.3 °C -19 °C 34625.2 hPa WNW 29.8 km/h 29.8 km/h 62 % 0 mm 0.0 W/m2 CLR
05:58 -15.3 °C -19 °C 34625.2 hPa NW 32.8 km/h 32.8 km/h 62 % 0 mm 0.0 W/m2 CLR
06:03 -15.3 °C -19.1 °C 34611.7 hPa NW 29.8 km/h 29.8 km/h 61 % 0 mm 0.0 W/m2 CLR
06:08 -15.3 °C -19.1 °C 34625.2 hPa WNW 35.7 km/h 35.7 km/h 61 % 0 mm 0.0 W/m2 CLR
06:13 -15.3 °C -19.1 °C 34625.2 hPa WNW 29.8 km/h 29.8 km/h 61 % 0 mm 0.0 W/m2 CLR
06:18 -15.3 °C -19.1 °C 34625.2 hPa WNW 29.8 km/h 29.8 km/h 61 % 0 mm 0.0 W/m2 CLR
06:23 -15.3 °C -19.1 °C 34625.2 hPa West 29.8 km/h 29.8 km/h 61 % 0 mm 0.0 W/m2 CLR
06:28 -15.3 °C -19.1 °C 34625.2 hPa WNW 20.9 km/h 20.9 km/h 61 % 0 mm 0.0 W/m2 CLR
06:33 -15.3 °C -19 °C 34625.2 hPa WNW 18.2 km/h 18.2 km/h 62 % 0 mm 0.0 W/m2 CLR
06:38 -15.6 °C -19.3 °C 34625.2 hPa WNW 20.8 km/h 20.8 km/h 62 % 0 mm 0.0 W/m2 CLR
06:43 -15.6 °C -19.3 °C 34625.2 hPa WNW 28.5 km/h 28.5 km/h 62 % 0 mm 0.0 W/m2 CLR
06:48 -15.9 °C -19.6 °C 34625.2 hPa WNW 35.7 km/h 35.7 km/h 62 % 0 mm 0.0 W/m2 CLR
06:53 -15.6 °C -19.3 °C 34625.2 hPa WNW 41.7 km/h 41.7 km/h 62 % 0 mm 0.0 W/m2 CLR
06:58 -15.3 °C -19.1 °C 34625.2 hPa NW 32.8 km/h 32.8 km/h 61 % 0 mm 0.0 W/m2 CLR
07:03 -15.3 °C -19.1 °C 34625.2 hPa WNW 38.8 km/h 38.8 km/h 61 % 0 mm 0.0 W/m2 CLR
07:08 -15.6 °C -19.4 °C 34625.2 hPa WNW 35.7 km/h 35.7 km/h 61 % 0 mm 0.0 W/m2 CLR
07:13 -15.6 °C -19.4 °C 34625.2 hPa WNW 26.9 km/h 26.9 km/h 61 % 0 mm 0.0 W/m2 CLR
07:18 -15.3 °C -19.1 °C 34635.4 hPa WNW 29.8 km/h 29.8 km/h 61 % 0 mm 0.0 W/m2 CLR
07:19 -15.3 °C -19 °C 34635.4 hPa West 44.7 km/h 44.7 km/h 62 % 0 mm 0.0 W/m2 CLR
07:24 -15.3 °C -19 °C 34635.4 hPa NW 26.9 km/h 26.9 km/h 62 % 0 mm 0.0 W/m2 CLR
07:29 -15.3 °C -19 °C 34635.4 hPa West 15.6 km/h 15.6 km/h 62 % 0 mm 0.0 W/m2 CLR
07:34 -15.3 °C -19 °C 34635.4 hPa WSW 20.8 km/h 20.8 km/h 62 % 0 mm 0.0 W/m2 CLR
07:39 -15.3 °C -18.9 °C 34635.4 hPa West 29.8 km/h 29.8 km/h 63 % 0 mm 0.0 W/m2 OVC
07:44 -15 °C -18.6 °C 34635.4 hPa WNW 26.9 km/h 26.9 km/h 63 % 0 mm 0.0 W/m2 OVC
07:49 -15.3 °C -18.9 °C 34635.4 hPa West 29.8 km/h 29.8 km/h 63 % 0 mm 7.0 W/m2 OVC
07:54 -15.3 °C -18.9 °C 34635.4 hPa West 23.8 km/h 23.8 km/h 63 % 0 mm 9.0 W/m2 OVC
07:59 -15.6 °C -19.3 °C 34645.6 hPa West 26.9 km/h 26.9 km/h 62 % 0 mm 11.0 W/m2 OVC
08:04 -15.3 °C -19 °C 34645.6 hPa WNW 26.9 km/h 26.9 km/h 62 % 0 mm 12.0 W/m2 OVC
08:09 -15.3 °C -19 °C 34645.6 hPa West 23.8 km/h 23.8 km/h 62 % 0 mm 14.0 W/m2 OVC
08:14 -15.3 °C -19 °C 34645.6 hPa West 17.9 km/h 17.9 km/h 62 % 0 mm 19.0 W/m2 OVC
08:19 -15.3 °C -19 °C 34659.1 hPa West 20.9 km/h 20.9 km/h 62 % 0 mm 25.0 W/m2 OVC
08:24 -15 °C -18.8 °C 34645.6 hPa WSW 15 km/h 15 km/h 61 % 0 mm 37.0 W/m2 OVC
08:29 -15 °C -18.9 °C 34645.6 hPa West 15 km/h 15 km/h 60 % 0 mm 46.0 W/m2 OVC
08:34 -15 °C -18.9 °C 34645.6 hPa West 17.9 km/h 17.9 km/h 60 % 0 mm 60.0 W/m2 OVC
08:39 -15 °C -19.1 °C 34645.6 hPa WSW 15 km/h 15 km/h 59 % 0 mm 72.0 W/m2 OVC
08:44 -15 °C -19.2 °C 34645.6 hPa West 29.8 km/h 29.8 km/h 58 % 0 mm 84.0 W/m2 OVC
08:49 -15 °C -19.2 °C 34659.1 hPa WNW 44.7 km/h 44.7 km/h 58 % 0 mm 97.0 W/m2 BKN
08:54 -14.7 °C -19.1 °C 34645.6 hPa NW 38.8 km/h 38.8 km/h 57 % 0 mm 116.0 W/m2 SCT
08:59 -14.7 °C -19.2 °C 34645.6 hPa WNW 35.7 km/h 35.7 km/h 56 % 0 mm 121.0 W/m2 CLR
09:04 -14.4 °C -18.9 °C 34659.1 hPa NNW 29.8 km/h 29.8 km/h 56 % 0 mm 144.0 W/m2 CLR
09:09 -14.4 °C -18.9 °C 34659.1 hPa WNW 29.8 km/h 29.8 km/h 56 % 0 mm 158.0 W/m2 CLR
09:14 -14.4 °C -19.1 °C 34659.1 hPa NW 29.8 km/h 29.8 km/h 55 % 0 mm 114.0 W/m2 CLR
09:19 -14.1 °C -18.7 °C 34659.1 hPa NW 29.8 km/h 29.8 km/h 55 % 0 mm 151.0 W/m2 CLR
09:24 -14.1 °C -18.9 °C 34659.1 hPa WNW 32.8 km/h 32.8 km/h 54 % 0 mm 114.0 W/m2 CLR
09:29 -14.1 °C -18.7 °C 34669.3 hPa North 41.4 km/h 41.4 km/h 55 % 0 mm 172.0 W/m2 CLR
09:34 -13.8 °C -18.6 °C 34659.1 hPa WNW 41.7 km/h 41.7 km/h 54 % 0 mm 236.0 W/m2 CLR
09:39 -13.8 °C -18.6 °C 34659.1 hPa WNW 44.7 km/h 44.7 km/h 54 % 0 mm 253.0 W/m2 CLR
09:44 -13.8 °C -18.7 °C 34669.3 hPa WNW 35.7 km/h 35.7 km/h 53 % 0 mm 265.0 W/m2 CLR
09:49 -13.8 °C -18.7 °C 34669.3 hPa NW 47.6 km/h 47.6 km/h 53 % 0 mm 276.0 W/m2 CLR
09:54 -13.4 °C -18.4 °C 34669.3 hPa NW 50.7 km/h 50.7 km/h 53 % 0 mm 288.0 W/m2 CLR
09:59 -13.4 °C -18.6 °C 34669.3 hPa WNW 47.6 km/h 47.6 km/h 52 % 0 mm 302.0 W/m2 CLR
10:04 -13.4 °C -18.6 °C 34669.3 hPa NW 44.7 km/h 44.7 km/h 52 % 0 mm 313.0 W/m2 CLR
10:09 -13.2 °C -18.3 °C 34669.3 hPa NW 44.7 km/h 44.7 km/h 52 % 0 mm 323.0 W/m2 CLR
10:14 -13.2 °C -18.3 °C 34669.3 hPa NW 35.7 km/h 35.7 km/h 52 % 0 mm 334.0 W/m2 CLR
10:19 -13.2 °C -18.4 °C 34669.3 hPa NW 26.9 km/h 26.9 km/h 51 % 0 mm 348.0 W/m2 CLR
10:24 -13.2 °C -18.4 °C 34669.3 hPa NW 29.8 km/h 29.8 km/h 51 % 0 mm 357.0 W/m2 CLR
10:29 -13.2 °C -18.4 °C 34669.3 hPa NW 36.2 km/h 36.2 km/h 51 % 0 mm 367.0 W/m2 CLR
10:34 -12.8 °C -18.3 °C 34669.3 hPa ESE 51.8 km/h 51.8 km/h 50 % 0 mm 374.0 W/m2 CLR
10:39 -12.8 °C -18.3 °C 34669.3 hPa NW 47.6 km/h 47.6 km/h 50 % 0 mm 387.0 W/m2 CLR
10:44 -12.8 °C -18.3 °C 34669.3 hPa NNW 32.8 km/h 32.8 km/h 50 % 0 mm 394.0 W/m2 CLR
10:49 -12.8 °C -18.3 °C 34669.3 hPa NW 44.7 km/h 44.7 km/h 50 % 0 mm 404.0 W/m2 CLR
10:54 -12.6 °C -18.2 °C 34669.3 hPa NW 44.7 km/h 44.7 km/h 49 % 0 mm 411.0 W/m2 CLR
10:59 -12.6 °C -18.2 °C 34669.3 hPa NW 56.6 km/h 56.6 km/h 49 % 0 mm 420.0 W/m2 CLR
11:04 -12.6 °C -18.2 °C 34659.1 hPa WNW 41.7 km/h 41.7 km/h 49 % 0 mm 429.0 W/m2 CLR
11:09 -12.6 °C -18.2 °C 34659.1 hPa NNW 35.7 km/h 35.7 km/h 49 % 0 mm 434.0 W/m2 CLR
11:14 -12.6 °C -18.4 °C 34669.3 hPa NNW 47.6 km/h 47.6 km/h 48 % 0 mm 441.0 W/m2 CLR
11:19 -12.6 °C -18.5 °C 34669.3 hPa NW 53.6 km/h 53.6 km/h 47 % 0 mm 448.0 W/m2 CLR
11:24 -12.2 °C -18.1 °C 34659.1 hPa NW 32.8 km/h 32.8 km/h 48 % 0 mm 457.0 W/m2 CLR
11:29 -12.2 °C -18.2 °C 34669.3 hPa NNW 50.7 km/h 50.7 km/h 47 % 0 mm 462.0 W/m2 CLR
11:34 -11.9 °C -17.9 °C 34659.1 hPa NNW 38.8 km/h 38.8 km/h 47 % 0 mm 468.0 W/m2 CLR
11:39 -11.9 °C -18.1 °C 34659.1 hPa North 53.6 km/h 53.6 km/h 46 % 0 mm 473.0 W/m2 CLR
11:44 -11.9 °C -18.3 °C 34659.1 hPa North 46.7 km/h 46.7 km/h 45 % 0 mm 478.0 W/m2 CLR
11:49 -11.9 °C -18.1 °C 34659.1 hPa NNW 41.7 km/h 41.7 km/h 46 % 0 mm 482.0 W/m2 CLR
11:54 -11.9 °C -18.4 °C 34659.1 hPa NNW 49.2 km/h 49.2 km/h 44 % 0 mm 485.0 W/m2 CLR
12:00 -11.9 °C -18.4 °C 34659.1 hPa NW 31.1 km/h 31.1 km/h 44 % 0 mm 489.0 W/m2 CLR
12:05 -11.6 °C -18.2 °C 34659.1 hPa North 47.6 km/h 47.6 km/h 44 % 0 mm 496.0 W/m2 CLR
12:10 -11.6 °C -18.3 °C 34659.1 hPa North 41.4 km/h 41.4 km/h 43 % 0 mm 497.0 W/m2 CLR
12:15 -11.6 °C -18.3 °C 34659.1 hPa NW 50.7 km/h 50.7 km/h 43 % 0 mm 501.0 W/m2 CLR
12:20 -11.6 °C -18.5 °C 34659.1 hPa North 44.7 km/h 44.7 km/h 42 % 0 mm 503.0 W/m2 CLR
12:25 -11.6 °C -18.5 °C 34645.6 hPa NNW 50.7 km/h 50.7 km/h 42 % 0 mm 503.0 W/m2 CLR
12:30 -11.6 °C -18.5 °C 34645.6 hPa NNW 47.6 km/h 47.6 km/h 42 % 0 mm 504.0 W/m2 CLR
12:35 -11.3 °C -18.2 °C 34645.6 hPa North 50.7 km/h 50.7 km/h 42 % 0 mm 506.0 W/m2 CLR
12:40 -11.3 °C -18.2 °C 34645.6 hPa NNW 53.6 km/h 53.6 km/h 42 % 0 mm 508.0 W/m2 CLR
12:45 -11 °C -18.2 °C 34645.6 hPa NW 41.7 km/h 41.7 km/h 41 % 0 mm 510.0 W/m2 CLR
12:50 -11 °C -18.2 °C 34645.6 hPa NNW 35.7 km/h 35.7 km/h 41 % 0 mm 506.0 W/m2 CLR
12:55 -11.3 °C -18.4 °C 34645.6 hPa NNW 44.1 km/h 44.1 km/h 41 % 0 mm 506.0 W/m2 CLR
13:00 -11.3 °C -18.4 °C 34645.6 hPa NW 31.1 km/h 31.1 km/h 41 % 0 mm 504.0 W/m2 CLR
13:05 -11.3 °C -18.6 °C 34645.6 hPa NNW 44.7 km/h 44.7 km/h 40 % 0 mm 504.0 W/m2 CLR
13:10 -11 °C -18.2 °C 34645.6 hPa NW 36.2 km/h 36.2 km/h 41 % 0 mm 503.0 W/m2 CLR
13:15 -11.3 °C -18.4 °C 34645.6 hPa North 31.1 km/h 31.1 km/h 41 % 0 mm 501.0 W/m2 CLR
13:20 -10.7 °C -18.1 °C 34645.6 hPa NNW 41.7 km/h 41.7 km/h 40 % 0 mm 497.0 W/m2 CLR
13:25 -11 °C -18.3 °C 34635.4 hPa NW 35.7 km/h 35.7 km/h 40 % 0 mm 494.0 W/m2 CLR
13:30 -11 °C -18.5 °C 34635.4 hPa NNW 29.8 km/h 29.8 km/h 39 % 0 mm 492.0 W/m2 CLR
13:35 -11 °C -18.3 °C 34635.4 hPa NW 28.5 km/h 28.5 km/h 40 % 0 mm 489.0 W/m2 CLR
13:40 -10.7 °C -18.2 °C 34635.4 hPa NNW 41.7 km/h 41.7 km/h 39 % 0 mm 485.0 W/m2 CLR
13:41 -10.7 °C -18.2 °C 34635.4 hPa NNW 36.2 km/h 36.2 km/h 39 % 0 mm 483.0 W/m2 CLR
13:46 -11 °C -18.5 °C 34625.2 hPa NW 35.7 km/h 35.7 km/h 39 % 0 mm 480.0 W/m2 CLR
13:51 -10.7 °C -18.4 °C 34625.2 hPa NNW 50.7 km/h 50.7 km/h 38 % 0 mm 475.0 W/m2 CLR
13:56 -10.7 °C -18.4 °C 34625.2 hPa NNW 53.6 km/h 53.6 km/h 38 % 0 mm 471.0 W/m2 CLR
14:01 -10.7 °C -18.4 °C 34625.2 hPa NW 50.7 km/h 50.7 km/h 38 % 0 mm 462.0 W/m2 CLR
14:06 -10.7 °C -18.2 °C 34611.7 hPa NNW 36.2 km/h 36.2 km/h 39 % 0 mm 457.0 W/m2 CLR
14:11 -10.7 °C -18.4 °C 34611.7 hPa NNW 41.7 km/h 41.7 km/h 38 % 0 mm 452.0 W/m2 CLR
14:16 -10.4 °C -18.2 °C 34611.7 hPa NW 29.8 km/h 29.8 km/h 38 % 0 mm 446.0 W/m2 CLR
14:21 -10.4 °C -18.2 °C 34611.7 hPa NW 29.8 km/h 29.8 km/h 38 % 0 mm 439.0 W/m2 CLR
14:26 -10.4 °C -18.4 °C 34611.7 hPa NW 47.6 km/h 47.6 km/h 37 % 0 mm 431.0 W/m2 CLR
14:31 -10.4 °C -18.4 °C 34611.7 hPa NNW 35.7 km/h 35.7 km/h 37 % 0 mm 424.0 W/m2 CLR
14:36 -10.4 °C -18.4 °C 34611.7 hPa NNW 35.7 km/h 35.7 km/h 37 % 0 mm 415.0 W/m2 CLR
14:41 -10.4 °C -18.6 °C 34611.7 hPa NW 41.7 km/h 41.7 km/h 36 % 0 mm 406.0 W/m2 CLR
14:46 -10.4 °C -18.6 °C 34601.5 hPa NW 41.7 km/h 41.7 km/h 36 % 0 mm 397.0 W/m2 CLR
14:51 -10.4 °C -18.6 °C 34601.5 hPa NNW 29.8 km/h 29.8 km/h 36 % 0 mm 388.0 W/m2 CLR
14:56 -10.4 °C -18.6 °C 34601.5 hPa NW 41.7 km/h 41.7 km/h 36 % 0 mm 378.0 W/m2 CLR
15:01 -10.4 °C -18.6 °C 34601.5 hPa North 50.7 km/h 50.7 km/h 36 % 0 mm 367.0 W/m2 CLR
15:06 -10.4 °C -18.6 °C 34601.5 hPa North 46.7 km/h 46.7 km/h 36 % 0 mm 357.0 W/m2 CLR
15:11 -10.4 °C -18.6 °C 34601.5 hPa North 50.7 km/h 50.7 km/h 36 % 0 mm 346.0 W/m2 CLR
15:16 -10.4 °C -18.6 °C 34601.5 hPa NNW 44.7 km/h 44.7 km/h 36 % 0 mm 338.0 W/m2 CLR
15:21 -10.4 °C -18.6 °C 34601.5 hPa NW 35.7 km/h 35.7 km/h 36 % 0 mm 327.0 W/m2 CLR
15:26 -10.4 °C -18.8 °C 34601.5 hPa NW 28.5 km/h 28.5 km/h 35 % 0 mm 313.0 W/m2 CLR
15:31 -10.4 °C -18.8 °C 34601.5 hPa North 50.7 km/h 50.7 km/h 35 % 0 mm 302.0 W/m2 CLR
15:36 -10.4 °C -18.8 °C 34601.5 hPa NW 41.7 km/h 41.7 km/h 35 % 0 mm 292.0 W/m2 CLR
15:41 -10.4 °C -18.8 °C 34601.5 hPa NW 38.8 km/h 38.8 km/h 35 % 0 mm 279.0 W/m2 CLR
15:46 -10.4 °C -18.8 °C 34601.5 hPa WNW 41.4 km/h 41.4 km/h 35 % 0 mm 264.0 W/m2 CLR
15:51 -10.4 °C -18.6 °C 34601.5 hPa North 36.2 km/h 36.2 km/h 36 % 0 mm 250.0 W/m2 CLR
15:56 -10.4 °C -18.6 °C 34601.5 hPa NW 36.2 km/h 36.2 km/h 36 % 0 mm 239.0 W/m2 CLR
16:01 -10.7 °C -18.8 °C 34601.5 hPa NW 33.6 km/h 33.6 km/h 36 % 0 mm 221.0 W/m2 CLR
16:06 -10.7 °C -19.1 °C 34601.5 hPa NW 44.7 km/h 44.7 km/h 35 % 0 mm 207.0 W/m2 CLR
16:11 -10.7 °C -18.8 °C 34601.5 hPa NNW 35.7 km/h 35.7 km/h 36 % 0 mm 192.0 W/m2 CLR
16:16 -10.7 °C -19.1 °C 34601.5 hPa North 44.7 km/h 44.7 km/h 35 % 0 mm 176.0 W/m2 CLR
16:21 -11 °C -19.1 °C 34601.5 hPa NNW 50.7 km/h 50.7 km/h 36 % 0 mm 160.0 W/m2 CLR
16:26 -11 °C -19.1 °C 34601.5 hPa North 41.7 km/h 41.7 km/h 36 % 0 mm 146.0 W/m2 CLR
16:31 -11 °C -19.1 °C 34601.5 hPa NW 29.8 km/h 29.8 km/h 36 % 0 mm 128.0 W/m2 CLR
16:36 -11 °C -19.1 °C 34601.5 hPa NNW 29.8 km/h 29.8 km/h 36 % 0 mm 113.0 W/m2 CLR
16:41 -11.3 °C -19.4 °C 34611.7 hPa NW 23.8 km/h 23.8 km/h 36 % 0 mm 100.0 W/m2 CLR
16:46 -11.3 °C -19.4 °C 34611.7 hPa NW 29.8 km/h 29.8 km/h 36 % 0 mm 86.0 W/m2 CLR
16:51 -11.3 °C -19.2 °C 34611.7 hPa NNW 32.8 km/h 32.8 km/h 37 % 0 mm 70.0 W/m2 FEW
16:56 -11.3 °C -19.2 °C 34611.7 hPa NNW 28.5 km/h 28.5 km/h 37 % 0 mm 56.0 W/m2 SCT
17:01 -11.3 °C -19.2 °C 34611.7 hPa NNW 20.9 km/h 20.9 km/h 37 % 0 mm 49.0 W/m2 SCT
17:06 -11.3 °C -19.2 °C 34611.7 hPa NNW 26.9 km/h 26.9 km/h 37 % 0 mm 39.0 W/m2 BKN
17:11 -11.6 °C -19.3 °C 34611.7 hPa NW 26.9 km/h 26.9 km/h 38 % 0 mm 26.0 W/m2 BKN
17:16 -11.6 °C -19.3 °C 34611.7 hPa NW 29.8 km/h 29.8 km/h 38 % 0 mm 19.0 W/m2 BKN
17:21 -11.6 °C -19.3 °C 34611.7 hPa NW 26.9 km/h 26.9 km/h 38 % 0 mm 14.0 W/m2 BKN
17:26 -11.9 °C -19.6 °C 34611.7 hPa NW 17.9 km/h 17.9 km/h 38 % 0 mm 12.0 W/m2 BKN
17:31 -11.9 °C -19.3 °C 34625.2 hPa NW 11.9 km/h 11.9 km/h 39 % 0 mm 11.0 W/m2 BKN
17:36 -12.2 °C -19.6 °C 34625.2 hPa WNW 9 km/h 9 km/h 39 % 0 mm 7.0 W/m2 BKN
17:41 -12.6 °C -19.9 °C 34625.2 hPa NW 15.6 km/h 15.6 km/h 39 % 0 mm 5.0 W/m2 OVC
17:46 -13.2 °C -20.3 °C 34625.2 hPa NW 12.9 km/h 12.9 km/h 40 % 0 mm 0.0 W/m2 OVC
17:51 -13.4 °C -20.6 °C 34625.2 hPa NW 15 km/h 15 km/h 40 % 0 mm 0.0 W/m2 OVC
17:56 -13.4 °C -20.6 °C 34625.2 hPa NW 15 km/h 15 km/h 40 % 0 mm 0.0 W/m2 CLR
18:01 -13.8 °C -20.7 °C 34625.2 hPa NW 17.9 km/h 17.9 km/h 41 % 0 mm 0.0 W/m2 CLR
18:06 -14.1 °C -20.9 °C 34625.2 hPa NW 20.9 km/h 20.9 km/h 41 % 0 mm 0.0 W/m2 CLR
18:11 -14.4 °C -21.2 °C 34635.4 hPa WNW 9 km/h 9 km/h 41 % 0 mm 0.0 W/m2 CLR
18:16 -14.4 °C -21.2 °C 34635.4 hPa Calm     41 % 0 mm 0.0 W/m2 CLR
18:21 -14.7 °C -21.5 °C 34645.6 hPa Calm     41 % 0 mm 0.0 W/m2 CLR
18:26 -15 °C -21.6 °C 34635.4 hPa Calm     42 % 0 mm 0.0 W/m2 CLR
18:31 -15 °C -21.3 °C 34645.6 hPa Calm     44 % 0 mm 0.0 W/m2 CLR
18:36 -15.3 °C -21.6 °C 34645.6 hPa Calm     44 % 0 mm 0.0 W/m2 CLR
18:38 -15.3 °C -21.6 °C 34645.6 hPa Calm     44 % 0 mm 0.0 W/m2 CLR
18:43 -15.3 °C -21.4 °C 34645.6 hPa Calm     45 % 0 mm 0.0 W/m2 CLR
18:48 -15.6 °C -21.8 °C 34645.6 hPa Calm     44 % 0 mm 0.0 W/m2 CLR
18:53 -15.6 °C -21.8 °C 34645.6 hPa Calm     44 % 0 mm 0.0 W/m2 CLR
18:58 -15.9 °C -21.9 °C 34645.6 hPa Calm     45 % 0 mm 0.0 W/m2 CLR
19:03 -16.2 °C -21.9 °C 34645.6 hPa Calm     47 % 0 mm 0.0 W/m2 CLR
19:08 -16.2 °C -21.8 °C 34659.1 hPa Calm     48 % 0 mm 0.0 W/m2 CLR
19:10 -16.2 °C -21.8 °C 34659.1 hPa Calm     48 % 0 mm 0.0 W/m2 CLR
19:15 -16.6 °C -22.1 °C 34659.1 hPa Calm     48 % 0 mm 0.0 W/m2 CLR
19:20 -16.6 °C -21.9 °C 34659.1 hPa Calm     49 % 0 mm 0.0 W/m2 CLR
19:25 -16.6 °C -21.8 °C 34659.1 hPa Calm     50 % 0 mm 0.0 W/m2 CLR
19:30 -16.6 °C -21.9 °C 34659.1 hPa Calm     49 % 0 mm 0.0 W/m2 CLR
19:35 -16.8 °C -22.3 °C 34659.1 hPa WNW 20.9 km/h 20.9 km/h 48 % 0 mm 0.0 W/m2 CLR
19:40 -16.8 °C -22.4 °C 34659.1 hPa WNW 17.9 km/h 17.9 km/h 47 % 0 mm 0.0 W/m2 CLR
19:45 -16.8 °C -22.6 °C 34659.1 hPa WNW 11.9 km/h 11.9 km/h 46 % 0 mm 0.0 W/m2 CLR
19:50 -16.8 °C -22.6 °C 34659.1 hPa Calm     46 % 0 mm 0.0 W/m2 CLR
19:55 -17.2 °C -22.7 °C 34659.1 hPa Calm     47 % 0 mm 0.0 W/m2 CLR
20:00 -17.2 °C -22.4 °C 34669.3 hPa WSW 9 km/h 9 km/h 49 % 0 mm 0.0 W/m2 CLR
20:05 -17.2 °C -22.3 °C 34659.1 hPa WNW 9 km/h 9 km/h 50 % 0 mm 0.0 W/m2 CLR
20:10 -17.2 °C -22.3 °C 34669.3 hPa Calm     50 % 0 mm 0.0 W/m2 CLR
20:15 -17.2 °C -22.2 °C 34669.3 hPa Calm     51 % 0 mm 0.0 W/m2 CLR
20:20 -17.4 °C -22.3 °C 34669.3 hPa Calm     52 % 0 mm 0.0 W/m2 CLR
20:25 -17.4 °C -22.2 °C 34669.3 hPa Calm     53 % 0 mm 0.0 W/m2 CLR
20:30 -17.4 °C -22.3 °C 34669.3 hPa WNW 9 km/h 9 km/h 52 % 0 mm 0.0 W/m2 CLR
20:31 -17.4 °C -22.3 °C 34669.3 hPa WNW 9 km/h 9 km/h 52 % 0 mm 0.0 W/m2 CLR
20:36 -17.8 °C -22.7 °C 34669.3 hPa Calm     51 % 0 mm 0.0 W/m2 CLR
20:41 -17.8 °C -22.4 °C 34669.3 hPa Calm     53 % 0 mm 0.0 W/m2 CLR
20:46 -17.8 °C -22.3 °C 34682.8 hPa West 11.9 km/h 11.9 km/h 54 % 0 mm 0.0 W/m2 CLR
20:51 -17.8 °C -22.3 °C 34682.8 hPa WNW 11.9 km/h 11.9 km/h 54 % 0 mm 0.0 W/m2 CLR
20:56 -18.1 °C -22.6 °C 34682.8 hPa West 11.9 km/h 11.9 km/h 54 % 0 mm 0.0 W/m2 CLR
20:59 -18.1 °C -22.6 °C 34682.8 hPa West 11.9 km/h 11.9 km/h 54 % 0 mm 0.0 W/m2 CLR
21:04 -18.1 °C -22.8 °C 34682.8 hPa WSW 15 km/h 15 km/h 53 % 0 mm 0.0 W/m2 CLR
21:09 -18.1 °C -22.6 °C 34682.8 hPa WNW 15 km/h 15 km/h 54 % 0 mm 0.0 W/m2 CLR
21:14 -18.1 °C -22.5 °C 34682.8 hPa WNW 20.9 km/h 20.9 km/h 55 % 0 mm 0.0 W/m2 CLR
21:19 -18.1 °C -22.8 °C 34693 hPa West 26.9 km/h 26.9 km/h 53 % 0 mm 0.0 W/m2 CLR
21:24 -18.1 °C -22.9 °C 34693 hPa West 11.9 km/h 11.9 km/h 52 % 0 mm 0.0 W/m2 CLR
21:29 -18.1 °C -23 °C 34693 hPa Calm     51 % 0 mm 0.0 W/m2 CLR
21:34 -18.1 °C -22.8 °C 34693 hPa Calm     53 % 0 mm 0.0 W/m2 CLR
21:39 -18.1 °C -22.5 °C 34693 hPa WNW 17.9 km/h 17.9 km/h 55 % 0 mm 0.0 W/m2 CLR
21:44 -18.1 °C -22.9 °C 34693 hPa West 18.2 km/h 18.2 km/h 52 % 0 mm 0.0 W/m2 CLR
21:49 -18.1 °C -23 °C 34693 hPa West 20.9 km/h 20.9 km/h 51 % 0 mm 0.0 W/m2 CLR
21:54 -18.1 °C -23 °C 34693 hPa Calm     51 % 0 mm 0.0 W/m2 CLR
21:59 -18.1 °C -22.9 °C 34693 hPa Calm     52 % 0 mm 0.0 W/m2 CLR
22:04 -18.4 °C -22.9 °C 34693 hPa Calm     54 % 0 mm 0.0 W/m2 CLR
22:09 -18.4 °C -22.8 °C 34693 hPa Calm     55 % 0 mm 0.0 W/m2 CLR
22:14 -18.4 °C -22.6 °C 34703.1 hPa Calm     57 % 0 mm 0.0 W/m2 CLR
22:20 -18.4 °C -22.7 °C 34703.1 hPa Calm     56 % 0 mm 0.0 W/m2 CLR
22:25 -18.4 °C -22.7 °C 34693 hPa WNW 23.8 km/h 23.8 km/h 56 % 0 mm 0.0 W/m2 CLR
22:30 -18.4 °C -23.2 °C 34703.1 hPa WNW 20.9 km/h 20.9 km/h 52 % 0 mm 0.0 W/m2 CLR
22:35 -18.4 °C -23.3 °C 34703.1 hPa West 11.9 km/h 11.9 km/h 51 % 0 mm 0.0 W/m2 CLR
22:40 -18.7 °C -23.7 °C 34703.1 hPa Calm     50 % 0 mm 0.0 W/m2 CLR
22:45 -18.7 °C -23.2 °C 34703.1 hPa West 15 km/h 15 km/h 54 % 0 mm 0.0 W/m2 CLR
22:50 -18.7 °C -22.8 °C 34703.1 hPa West 17.9 km/h 17.9 km/h 57 % 0 mm 0.0 W/m2 CLR
22:55 -18.7 °C -22.9 °C 34703.1 hPa Calm     56 % 0 mm 0.0 W/m2 CLR
23:00 -18.7 °C -22.8 °C 34703.1 hPa Calm     57 % 0 mm 0.0 W/m2 CLR
23:05 -18.7 °C -22.7 °C 34703.1 hPa Calm     58 % 0 mm 0.0 W/m2 CLR
23:10 -18.7 °C -22.6 °C 34703.1 hPa Calm     59 % 0 mm 0.0 W/m2 CLR
23:15 -19 °C -22.7 °C 34703.1 hPa West 9 km/h 9 km/h 60 % 0 mm 0.0 W/m2 CLR
23:20 -19 °C -22.6 °C 34703.1 hPa WSW 11.9 km/h 11.9 km/h 61 % 0 mm 0.0 W/m2 CLR
23:25 -19 °C -22.6 °C 34703.1 hPa West 12.9 km/h 12.9 km/h 61 % 0 mm 0.0 W/m2 CLR
23:30 -19 °C -22.4 °C 34703.1 hPa WNW 20.9 km/h 20.9 km/h 63 % 0 mm 0.0 W/m2 CLR
23:35 -19 °C -22.9 °C 34703.1 hPa Calm     59 % 0 mm 0.0 W/m2 CLR
23:40 -19 °C -22.9 °C 34703.1 hPa WSW 15.6 km/h 15.6 km/h 59 % 0 mm 0.0 W/m2 CLR
23:45 -19 °C -22.7 °C 34703.1 hPa WSW 11.9 km/h 11.9 km/h 60 % 0 mm 0.0 W/m2 CLR
23:50 -19 °C -22.7 °C 34703.1 hPa Calm     60 % 0 mm 0.0 W/m2 CLR
23:55 -19 °C -22.6 °C 34703.1 hPa Calm     61 % 0 mm 0.0 W/m2 CLR
Lo Temps de Massalio
Compliments of Weather Underground - 1.25 mb